createdAt,value
2018-07-06T00:00:03.610Z,989.18
2018-07-06T00:01:03.736Z,989.16
2018-07-06T00:02:03.877Z,989.25
2018-07-06T00:03:04.017Z,989.23
2018-07-06T00:04:04.161Z,989.20
2018-07-06T00:05:04.300Z,989.23
2018-07-06T00:06:04.444Z,989.23
2018-07-06T00:07:04.592Z,989.26
2018-07-06T00:08:04.736Z,989.21
2018-07-06T00:09:04.871Z,989.24
2018-07-06T00:10:05.011Z,989.21
2018-07-06T00:11:05.263Z,989.25
2018-07-06T00:12:05.376Z,989.28
2018-07-06T00:13:05.444Z,989.25
2018-07-06T00:14:05.584Z,989.29
2018-07-06T00:15:05.732Z,989.31
2018-07-06T00:16:05.893Z,989.32
2018-07-06T00:17:06.030Z,989.32
2018-07-06T00:18:06.170Z,989.29
2018-07-06T00:19:06.330Z,989.34
2018-07-06T00:20:06.462Z,989.32
2018-07-06T00:21:06.608Z,989.32
2018-07-06T00:22:06.764Z,989.32
2018-07-06T00:23:06.903Z,989.33
2018-07-06T00:24:07.050Z,989.34
2018-07-06T00:25:07.197Z,989.33
2018-07-06T00:26:07.357Z,989.37
2018-07-06T00:27:07.500Z,989.39
2018-07-06T00:28:07.638Z,989.36
2018-07-06T00:29:07.789Z,989.39
2018-07-06T00:30:07.926Z,989.37
2018-07-06T00:31:08.067Z,989.36
2018-07-06T00:32:08.265Z,989.36
2018-07-06T00:33:08.357Z,989.33
2018-07-06T00:34:08.501Z,989.38
2018-07-06T00:35:08.639Z,989.38
2018-07-06T00:36:08.781Z,989.38
2018-07-06T00:37:08.945Z,989.45
2018-07-06T00:38:09.065Z,989.41
2018-07-06T00:39:09.280Z,989.43
2018-07-06T00:41:41.945Z,989.46
2018-07-06T00:42:42.086Z,989.43
2018-07-06T00:43:42.226Z,989.48
2018-07-06T00:44:42.394Z,989.48
2018-07-06T00:45:42.557Z,989.45
2018-07-06T00:46:42.701Z,989.45
2018-07-06T00:47:42.838Z,989.42
2018-07-06T00:48:43.002Z,989.44
2018-07-06T00:49:43.125Z,989.40
2018-07-06T00:50:43.279Z,989.42
2018-07-06T00:51:43.584Z,989.39
2018-07-06T00:52:43.619Z,989.39
2018-07-06T00:53:43.799Z,989.38
2018-07-06T00:54:43.945Z,989.37
2018-07-06T00:55:44.102Z,989.35
2018-07-06T00:56:44.436Z,989.36
2018-07-06T00:57:44.346Z,989.37
2018-07-06T00:58:44.489Z,989.37
2018-07-06T00:59:44.643Z,989.38
2018-07-06T01:00:44.789Z,989.47
2018-07-06T01:01:44.968Z,989.39
2018-07-06T01:02:45.069Z,989.44
2018-07-06T01:03:45.209Z,989.41
2018-07-06T01:04:45.349Z,989.44
2018-07-06T01:05:45.491Z,989.43
2018-07-06T01:06:45.638Z,989.46
2018-07-06T01:07:45.771Z,989.47
2018-07-06T01:08:45.921Z,989.50
2018-07-06T01:09:46.064Z,989.48
2018-07-06T01:10:46.207Z,989.46
2018-07-06T01:11:46.353Z,989.51
2018-07-06T01:12:46.507Z,989.54
2018-07-06T01:13:46.624Z,989.54
2018-07-06T01:14:46.765Z,989.55
2018-07-06T01:15:46.918Z,989.55
2018-07-06T01:16:47.052Z,989.54
2018-07-06T01:17:47.199Z,989.57
2018-07-06T01:18:47.345Z,989.56
2018-07-06T01:19:47.481Z,989.56
2018-07-06T01:20:48.474Z,989.55
2018-07-06T01:21:47.763Z,989.52
2018-07-06T01:22:47.909Z,989.55
2018-07-06T01:23:48.047Z,989.53
2018-07-06T01:24:48.192Z,989.50
2018-07-06T01:25:48.333Z,989.54
2018-07-06T01:26:48.474Z,989.58
2018-07-06T01:27:48.615Z,989.59
2018-07-06T01:28:48.751Z,989.61
2018-07-06T01:29:48.901Z,989.59
2018-07-06T01:30:49.035Z,989.62
2018-07-06T01:31:49.176Z,989.57
2018-07-06T01:32:49.354Z,989.57
2018-07-06T01:33:49.490Z,989.59
2018-07-06T01:34:49.630Z,989.59
2018-07-06T01:35:49.778Z,989.59
2018-07-06T01:36:49.913Z,989.56
2018-07-06T01:37:50.069Z,989.57
2018-07-06T01:38:50.221Z,989.58
2018-07-06T01:39:50.364Z,989.60
2018-07-06T01:40:50.505Z,989.63
2018-07-06T01:41:50.647Z,989.61
2018-07-06T01:42:50.791Z,989.59
2018-07-06T01:43:50.926Z,989.62
2018-07-06T01:44:51.070Z,989.62
2018-07-06T01:45:51.234Z,989.62
2018-07-06T01:46:51.379Z,989.63
2018-07-06T01:47:51.521Z,989.57
2018-07-06T01:48:51.662Z,989.61
2018-07-06T01:49:51.806Z,989.59
2018-07-06T01:50:51.946Z,989.60
2018-07-06T01:51:52.089Z,989.65
2018-07-06T01:52:52.224Z,989.68
2018-07-06T01:53:52.358Z,989.72
2018-07-06T01:54:52.579Z,989.69
2018-07-06T01:55:52.716Z,989.75
2018-07-06T01:56:52.826Z,989.71
2018-07-06T01:57:52.967Z,989.69
2018-07-06T01:58:53.104Z,989.73
2018-07-06T01:59:53.250Z,989.76
2018-07-06T02:00:53.387Z,989.72
2018-07-06T02:01:53.530Z,989.74
2018-07-06T02:02:53.668Z,989.73
2018-07-06T02:03:53.811Z,989.76
2018-07-06T02:04:53.957Z,989.78
2018-07-06T02:05:54.150Z,989.76
2018-07-06T02:06:54.259Z,989.76
2018-07-06T02:07:54.400Z,989.78
2018-07-06T02:08:54.537Z,989.79
2018-07-06T02:09:54.682Z,989.79
2018-07-06T02:10:54.820Z,989.81
2018-07-06T02:11:54.969Z,989.76
2018-07-06T02:12:55.130Z,989.80
2018-07-06T02:13:55.272Z,989.79
2018-07-06T02:14:55.416Z,989.79
2018-07-06T02:15:55.674Z,989.76
2018-07-06T02:16:55.691Z,989.78
2018-07-06T02:17:55.959Z,989.75
2018-07-06T02:18:55.972Z,989.75
2018-07-06T02:19:56.136Z,989.81
2018-07-06T02:20:56.285Z,989.79
2018-07-06T02:21:56.424Z,989.78
2018-07-06T02:22:56.595Z,989.81
2018-07-06T02:23:56.735Z,989.80
2018-07-06T02:24:56.875Z,989.85
2018-07-06T02:25:57.016Z,989.83
2018-07-06T02:26:57.186Z,989.87
2018-07-06T02:27:57.327Z,989.81
2018-07-06T02:28:57.472Z,989.88
2018-07-06T02:29:57.601Z,989.89
2018-07-06T02:30:57.771Z,989.86
2018-07-06T02:31:57.911Z,989.89
2018-07-06T02:32:58.063Z,989.89
2018-07-06T02:33:58.199Z,989.91
2018-07-06T02:34:58.379Z,989.94
2018-07-06T02:35:58.513Z,989.94
2018-07-06T02:36:58.656Z,989.95
2018-07-06T02:37:58.791Z,989.98
2018-07-06T02:38:58.948Z,989.96
2018-07-06T02:39:59.087Z,989.96
2018-07-06T02:40:59.257Z,989.95
2018-07-06T02:41:59.395Z,989.98
2018-07-06T02:42:59.543Z,989.96
2018-07-06T02:43:59.687Z,989.98
2018-07-06T02:44:59.850Z,989.98
2018-07-06T02:45:59.973Z,989.98
2018-07-06T02:47:00.116Z,990.00
2018-07-06T02:48:00.257Z,990.06
2018-07-06T02:49:00.410Z,990.09
2018-07-06T02:50:00.548Z,990.08
2018-07-06T02:51:00.692Z,990.10
2018-07-06T02:52:00.842Z,990.10
2018-07-06T02:53:00.972Z,990.07
2018-07-06T02:54:01.120Z,990.13
2018-07-06T02:55:01.272Z,990.14
2018-07-06T02:56:01.410Z,990.13
2018-07-06T02:57:01.561Z,990.16
2018-07-06T02:58:01.696Z,990.19
2018-07-06T02:59:01.868Z,990.18
2018-07-06T03:00:02.044Z,990.22
2018-07-06T03:01:02.161Z,990.21
2018-07-06T03:02:02.302Z,990.25
2018-07-06T03:03:02.460Z,990.22
2018-07-06T03:04:02.601Z,990.22
2018-07-06T03:05:02.743Z,990.24
2018-07-06T03:06:02.908Z,990.22
2018-07-06T03:07:03.041Z,990.21
2018-07-06T03:08:03.177Z,990.19
2018-07-06T03:09:03.323Z,990.20
2018-07-06T03:10:03.458Z,990.19
2018-07-06T03:11:03.600Z,990.20
2018-07-06T03:12:03.735Z,990.17
2018-07-06T03:13:03.908Z,990.17
2018-07-06T03:14:04.047Z,990.17
2018-07-06T03:15:04.187Z,990.20
2018-07-06T03:16:04.352Z,990.20
2018-07-06T03:17:04.487Z,990.19
2018-07-06T03:18:04.634Z,990.19
2018-07-06T03:19:04.769Z,990.19
2018-07-06T03:20:04.926Z,990.18
2018-07-06T03:21:05.061Z,990.24
2018-07-06T03:22:05.208Z,990.24
2018-07-06T03:23:05.350Z,990.25
2018-07-06T03:24:05.508Z,990.26
2018-07-06T03:25:05.649Z,990.29
2018-07-06T03:26:05.788Z,990.34
2018-07-06T03:27:05.927Z,990.31
2018-07-06T03:28:06.156Z,990.32
2018-07-06T03:29:06.232Z,990.34
2018-07-06T03:30:06.423Z,990.35
2018-07-06T03:31:06.547Z,990.33
2018-07-06T03:32:06.685Z,990.36
2018-07-06T03:33:06.854Z,990.33
2018-07-06T03:34:06.975Z,990.31
2018-07-06T03:35:07.115Z,990.32
2018-07-06T03:36:07.260Z,990.32
2018-07-06T03:37:07.442Z,990.31
2018-07-06T03:38:07.582Z,990.30
2018-07-06T03:39:07.733Z,990.29
2018-07-06T03:40:07.871Z,990.25
2018-07-06T03:41:08.032Z,990.24
2018-07-06T03:42:08.172Z,990.23
2018-07-06T03:43:08.307Z,990.26
2018-07-06T03:44:08.445Z,990.23
2018-07-06T03:45:08.591Z,990.23
2018-07-06T03:46:08.731Z,990.24
2018-07-06T03:47:08.878Z,990.28
2018-07-06T03:48:09.081Z,990.33
2018-07-06T03:49:09.178Z,990.28
2018-07-06T03:50:09.323Z,990.33
2018-07-06T03:51:09.453Z,990.39
2018-07-06T03:52:09.588Z,990.36
2018-07-06T03:53:09.748Z,990.39
2018-07-06T03:54:09.892Z,990.38
2018-07-06T03:55:10.025Z,990.41
2018-07-06T03:56:10.163Z,990.41
2018-07-06T03:57:10.304Z,990.42
2018-07-06T03:58:10.443Z,990.41
2018-07-06T03:59:10.599Z,990.44
2018-07-06T04:00:10.731Z,990.43
2018-07-06T04:01:10.937Z,990.41
2018-07-06T04:02:11.039Z,990.43
2018-07-06T04:03:11.180Z,990.45
2018-07-06T04:04:11.320Z,990.47
2018-07-06T04:05:11.473Z,990.47
2018-07-06T04:06:11.608Z,990.45
2018-07-06T04:07:11.753Z,990.49
2018-07-06T04:08:11.926Z,990.48
2018-07-06T04:09:12.072Z,990.45
2018-07-06T04:10:12.179Z,990.48
2018-07-06T04:11:12.354Z,990.50
2018-07-06T04:12:12.487Z,990.54
2018-07-06T04:13:12.632Z,990.55
2018-07-06T04:14:12.798Z,990.57
2018-07-06T04:15:12.931Z,990.53
2018-07-06T04:16:13.079Z,990.57
2018-07-06T04:17:13.224Z,990.58
2018-07-06T04:18:13.369Z,990.59
2018-07-06T04:19:13.513Z,990.60
2018-07-06T04:20:13.664Z,990.64
2018-07-06T04:21:13.805Z,990.64
2018-07-06T04:22:13.948Z,990.66
2018-07-06T04:23:14.086Z,990.69
2018-07-06T04:24:14.221Z,990.68
2018-07-06T04:25:14.369Z,990.73
2018-07-06T04:26:14.509Z,990.71
2018-07-06T04:27:14.658Z,990.72
2018-07-06T04:28:14.799Z,990.77
2018-07-06T04:29:14.945Z,990.76
2018-07-06T04:30:15.084Z,990.72
2018-07-06T04:31:15.222Z,990.74
2018-07-06T04:32:15.371Z,990.76
2018-07-06T04:33:15.511Z,990.74
2018-07-06T04:34:15.656Z,990.75
2018-07-06T04:35:15.793Z,990.73
2018-07-06T04:36:15.932Z,990.76
2018-07-06T04:37:16.074Z,990.76
2018-07-06T04:38:16.216Z,990.74
2018-07-06T04:39:16.362Z,990.73
2018-07-06T04:40:16.505Z,990.74
2018-07-06T04:41:16.652Z,990.74
2018-07-06T04:42:16.790Z,990.75
2018-07-06T04:43:16.939Z,990.75
2018-07-06T04:44:17.115Z,990.75
2018-07-06T04:45:17.221Z,990.77
2018-07-06T04:46:17.360Z,990.80
2018-07-06T04:47:17.511Z,990.79
2018-07-06T04:48:17.653Z,990.76
2018-07-06T04:49:17.792Z,990.76
2018-07-06T04:50:17.936Z,990.78
2018-07-06T04:51:18.081Z,990.76
2018-07-06T04:52:18.223Z,990.78
2018-07-06T04:53:18.358Z,990.76
2018-07-06T04:54:18.501Z,990.75
2018-07-06T04:55:18.641Z,990.76
2018-07-06T04:56:18.785Z,990.79
2018-07-06T04:57:18.931Z,990.76
2018-07-06T04:58:19.078Z,990.77
2018-07-06T04:59:19.729Z,990.84
2018-07-06T05:00:19.386Z,990.86
2018-07-06T05:01:19.524Z,990.84
2018-07-06T05:02:19.665Z,990.86
2018-07-06T05:03:19.805Z,990.86
2018-07-06T05:04:19.973Z,990.84
2018-07-06T05:05:20.108Z,990.91
2018-07-06T05:06:20.250Z,990.88
2018-07-06T05:07:20.386Z,990.88
2018-07-06T05:08:20.530Z,990.93
2018-07-06T05:09:20.677Z,990.93
2018-07-06T05:10:20.815Z,990.91
2018-07-06T05:11:20.973Z,990.94
2018-07-06T05:12:21.109Z,990.95
2018-07-06T05:13:21.253Z,990.92
2018-07-06T05:14:21.393Z,990.96
2018-07-06T05:15:21.563Z,990.97
2018-07-06T05:16:21.702Z,990.95
2018-07-06T05:17:21.851Z,990.97
2018-07-06T05:18:22.009Z,990.95
2018-07-06T05:19:22.145Z,990.95
2018-07-06T05:20:22.292Z,990.96
2018-07-06T05:21:22.443Z,990.97
2018-07-06T05:22:22.663Z,990.98
2018-07-06T05:23:22.675Z,990.99
2018-07-06T05:24:22.815Z,991.02
2018-07-06T05:25:23.004Z,991.03
2018-07-06T05:26:23.196Z,991.03
2018-07-06T05:27:23.338Z,991.05
2018-07-06T05:28:23.495Z,991.07
2018-07-06T05:29:23.652Z,991.11
2018-07-06T05:30:23.791Z,991.11
2018-07-06T05:31:23.954Z,991.14
2018-07-06T05:32:24.098Z,991.12
2018-07-06T05:33:24.249Z,991.13
2018-07-06T05:34:24.395Z,991.13
2018-07-06T05:35:24.540Z,991.17
2018-07-06T05:36:24.677Z,991.16
2018-07-06T05:37:24.879Z,991.18
2018-07-06T05:38:24.972Z,991.21
2018-07-06T05:39:25.126Z,991.23
2018-07-06T05:40:25.252Z,991.25
2018-07-06T05:41:25.402Z,991.24
2018-07-06T05:42:25.544Z,991.31
2018-07-06T05:43:25.687Z,991.29
2018-07-06T05:44:25.827Z,991.28
2018-07-06T05:45:26.025Z,991.30
2018-07-06T05:46:26.205Z,991.30
2018-07-06T05:47:26.326Z,991.28
2018-07-06T05:48:26.467Z,991.32
2018-07-06T05:49:26.614Z,991.32
2018-07-06T05:50:26.758Z,991.35
2018-07-06T05:51:26.899Z,991.37
2018-07-06T05:52:27.041Z,991.37
2018-07-06T05:53:27.177Z,991.37
2018-07-06T05:54:27.337Z,991.42
2018-07-06T05:55:27.471Z,991.35
2018-07-06T05:56:27.614Z,991.40
2018-07-06T05:57:27.754Z,991.39
2018-07-06T05:58:27.937Z,991.38
2018-07-06T05:59:28.077Z,991.38
2018-07-06T06:00:28.224Z,991.39
2018-07-06T06:01:28.361Z,991.38
2018-07-06T06:02:28.522Z,991.40
2018-07-06T06:03:28.663Z,991.43
2018-07-06T06:04:28.806Z,991.45
2018-07-06T06:05:28.948Z,991.40
2018-07-06T06:06:29.110Z,991.40
2018-07-06T06:07:29.251Z,991.44
2018-07-06T06:08:29.392Z,991.46
2018-07-06T06:09:29.578Z,991.48
2018-07-06T06:10:29.698Z,991.50
2018-07-06T06:11:29.840Z,991.50
2018-07-06T06:12:29.997Z,991.49
2018-07-06T06:13:30.138Z,991.56
2018-07-06T06:14:30.280Z,991.56
2018-07-06T06:15:30.420Z,991.58
2018-07-06T06:16:30.585Z,991.62
2018-07-06T06:17:30.733Z,991.58
2018-07-06T06:18:30.883Z,991.60
2018-07-06T06:19:31.016Z,991.58
2018-07-06T06:20:31.170Z,991.61
2018-07-06T06:21:31.313Z,991.61
2018-07-06T06:22:31.456Z,991.60
2018-07-06T06:23:31.600Z,991.63
2018-07-06T06:24:31.733Z,991.63
2018-07-06T06:25:31.874Z,991.64
2018-07-06T06:26:32.033Z,991.64
2018-07-06T06:27:32.167Z,991.64
2018-07-06T06:28:32.312Z,991.67
2018-07-06T06:29:32.456Z,991.70
2018-07-06T06:30:32.621Z,991.71
2018-07-06T06:31:32.763Z,991.72
2018-07-06T06:32:32.904Z,991.74
2018-07-06T06:33:33.113Z,991.73
2018-07-06T06:34:33.173Z,991.76
2018-07-06T06:35:33.314Z,991.77
2018-07-06T06:36:33.461Z,991.74
2018-07-06T06:37:33.703Z,991.76
2018-07-06T06:38:33.770Z,991.78
2018-07-06T06:39:33.910Z,991.78
2018-07-06T06:40:34.060Z,991.81
2018-07-06T06:41:34.230Z,991.86
2018-07-06T06:42:34.372Z,991.85
2018-07-06T06:43:34.513Z,991.85
2018-07-06T06:44:34.652Z,991.83
2018-07-06T06:45:34.801Z,991.81
2018-07-06T06:46:34.977Z,991.82
2018-07-06T06:47:35.074Z,991.84
2018-07-06T06:48:35.216Z,991.87
2018-07-06T06:49:35.357Z,991.85
2018-07-06T06:50:35.502Z,991.87
2018-07-06T06:51:35.645Z,991.88
2018-07-06T06:52:35.786Z,991.90
2018-07-06T06:53:35.926Z,991.91
2018-07-06T06:54:36.062Z,991.90
2018-07-06T06:55:36.208Z,991.95
2018-07-06T06:56:37.695Z,991.94
2018-07-06T06:57:36.543Z,991.93
2018-07-06T06:58:36.686Z,991.95
2018-07-06T06:59:36.836Z,991.95
2018-07-06T07:00:36.965Z,991.99
2018-07-06T07:01:37.111Z,991.98
2018-07-06T07:02:37.262Z,991.97
2018-07-06T07:03:37.409Z,991.95
2018-07-06T07:04:37.575Z,991.97
2018-07-06T07:05:37.723Z,991.97
2018-07-06T07:06:37.854Z,991.95
2018-07-06T07:07:38.203Z,991.94
2018-07-06T07:08:38.137Z,991.97
2018-07-06T07:09:38.283Z,991.95
2018-07-06T07:10:38.426Z,991.97
2018-07-06T07:11:38.567Z,992.00
2018-07-06T07:12:38.715Z,992.02
2018-07-06T07:13:38.918Z,992.03
2018-07-06T07:14:39.004Z,992.02
2018-07-06T07:15:39.145Z,992.00
2018-07-06T07:16:39.343Z,992.01
2018-07-06T07:17:39.477Z,992.03
2018-07-06T07:18:39.625Z,992.05
2018-07-06T07:19:39.796Z,992.03
2018-07-06T07:20:39.950Z,992.04
2018-07-06T07:21:40.105Z,992.06
2018-07-06T07:22:40.235Z,992.08
2018-07-06T07:23:40.426Z,992.08
2018-07-06T07:24:40.528Z,992.13
2018-07-06T07:25:40.654Z,992.16
2018-07-06T07:26:40.792Z,992.17
2018-07-06T07:27:40.935Z,992.22
2018-07-06T07:28:41.079Z,992.21
2018-07-06T07:29:41.265Z,992.21
2018-07-06T07:30:41.398Z,992.24
2018-07-06T07:31:41.545Z,992.25
2018-07-06T07:32:41.687Z,992.21
2018-07-06T07:33:41.836Z,992.21
2018-07-06T07:34:41.972Z,992.21
2018-07-06T07:35:42.110Z,992.23
2018-07-06T07:36:42.244Z,992.21
2018-07-06T07:37:42.394Z,992.24
2018-07-06T07:38:42.529Z,992.22
2018-07-06T07:39:42.671Z,992.21
2018-07-06T07:40:42.825Z,992.23
2018-07-06T07:41:42.994Z,992.25
2018-07-06T07:42:43.133Z,992.24
2018-07-06T07:43:43.278Z,992.22
2018-07-06T07:44:43.423Z,992.28
2018-07-06T07:45:43.601Z,992.34
2018-07-06T07:46:43.747Z,992.30
2018-07-06T07:47:43.885Z,992.30
2018-07-06T07:48:44.068Z,992.33
2018-07-06T07:49:44.193Z,992.31
2018-07-06T07:50:44.329Z,992.32
2018-07-06T07:51:44.469Z,992.33
2018-07-06T07:52:44.614Z,992.31
2018-07-06T07:53:44.762Z,992.28
2018-07-06T07:54:44.924Z,992.24
2018-07-06T07:55:45.070Z,992.25
2018-07-06T07:56:45.205Z,992.24
2018-07-06T07:57:45.350Z,992.23
2018-07-06T07:58:45.510Z,992.24
2018-07-06T07:59:45.645Z,992.20
2018-07-06T08:00:46.147Z,992.26
2018-07-06T08:01:45.983Z,992.25
2018-07-06T08:02:46.118Z,992.24
2018-07-06T08:03:46.259Z,992.27
2018-07-06T08:04:46.412Z,992.28
2018-07-06T08:05:46.587Z,992.28
2018-07-06T08:06:46.718Z,992.31
2018-07-06T08:07:46.879Z,992.32
2018-07-06T08:08:47.019Z,992.34
2018-07-06T08:09:47.160Z,992.33
2018-07-06T08:10:47.310Z,992.37
2018-07-06T08:11:47.464Z,992.35
2018-07-06T08:12:47.596Z,992.39
2018-07-06T08:13:47.739Z,992.36
2018-07-06T08:14:47.882Z,992.35
2018-07-06T08:15:48.031Z,992.35
2018-07-06T08:16:48.171Z,992.35
2018-07-06T08:17:48.331Z,992.39
2018-07-06T08:18:48.458Z,992.45
2018-07-06T08:19:48.599Z,992.39
2018-07-06T08:20:48.743Z,992.42
2018-07-06T08:21:48.895Z,992.41
2018-07-06T08:22:49.094Z,992.46
2018-07-06T08:23:49.110Z,992.47
2018-07-06T08:24:49.243Z,992.45
2018-07-06T08:25:49.391Z,992.49
2018-07-06T08:26:49.540Z,992.47
2018-07-06T08:27:49.687Z,992.48
2018-07-06T08:28:49.824Z,992.47
2018-07-06T08:29:49.965Z,992.52
2018-07-06T08:30:50.111Z,992.52
2018-07-06T08:31:50.358Z,992.51
2018-07-06T08:32:50.407Z,992.50
2018-07-06T08:33:50.542Z,992.53
2018-07-06T08:34:50.687Z,992.52
2018-07-06T08:35:50.840Z,992.54
2018-07-06T08:36:50.980Z,992.54
2018-07-06T08:37:51.123Z,992.53
2018-07-06T08:38:51.262Z,992.48
2018-07-06T08:39:51.434Z,992.49
2018-07-06T08:40:51.545Z,992.51
2018-07-06T08:41:51.686Z,992.50
2018-07-06T08:42:51.839Z,992.50
2018-07-06T08:43:52.051Z,992.55
2018-07-06T08:44:52.075Z,992.52
2018-07-06T08:45:52.219Z,992.55
2018-07-06T08:46:52.348Z,992.53
2018-07-06T08:47:52.492Z,992.58
2018-07-06T08:48:52.632Z,992.54
2018-07-06T08:49:52.780Z,992.54
2018-07-06T08:50:52.952Z,992.56
2018-07-06T08:51:53.092Z,992.53
2018-07-06T08:52:53.233Z,992.54
2018-07-06T08:53:53.374Z,992.53
2018-07-06T08:54:53.518Z,992.47
2018-07-06T08:55:53.659Z,992.53
2018-07-06T08:56:53.809Z,992.52
2018-07-06T08:57:53.951Z,992.54
2018-07-06T08:58:54.118Z,992.52
2018-07-06T08:59:54.311Z,992.51
2018-07-06T09:00:54.461Z,992.53
2018-07-06T09:01:54.604Z,992.55
2018-07-06T09:02:54.737Z,992.55
2018-07-06T09:03:54.893Z,992.52
2018-07-06T09:04:55.036Z,992.55
2018-07-06T09:05:55.180Z,992.53
2018-07-06T09:06:55.343Z,992.57
2018-07-06T09:07:55.485Z,992.55
2018-07-06T09:08:55.629Z,992.59
2018-07-06T09:09:55.766Z,992.58
2018-07-06T09:10:55.897Z,992.63
2018-07-06T09:11:56.038Z,992.62
2018-07-06T09:12:56.211Z,992.59
2018-07-06T09:13:56.312Z,992.61
2018-07-06T09:14:56.476Z,992.58
2018-07-06T09:15:56.616Z,992.63
2018-07-06T09:16:56.762Z,992.60
2018-07-06T09:17:56.910Z,992.63
2018-07-06T09:18:57.070Z,992.65
2018-07-06T09:19:57.469Z,992.62
2018-07-06T09:20:57.352Z,992.59
2018-07-06T09:21:57.493Z,992.58
2018-07-06T09:22:57.664Z,992.56
2018-07-06T09:23:57.846Z,992.58
2018-07-06T09:24:57.987Z,992.62
2018-07-06T09:25:58.439Z,992.57
2018-07-06T09:26:58.293Z,992.57
2018-07-06T09:27:58.430Z,992.57
2018-07-06T09:28:58.573Z,992.57
2018-07-06T09:29:58.731Z,992.58
2018-07-06T09:30:58.851Z,992.61
2018-07-06T09:31:58.995Z,992.63
2018-07-06T09:32:59.159Z,992.61
2018-07-06T09:33:59.329Z,992.58
2018-07-06T09:34:59.468Z,992.61
2018-07-06T09:35:59.611Z,992.59
2018-07-06T09:36:59.757Z,992.57
2018-07-06T09:37:59.912Z,992.55
2018-07-06T09:39:00.047Z,992.57
2018-07-06T09:40:00.190Z,992.57
2018-07-06T09:41:00.330Z,992.59
2018-07-06T09:42:00.511Z,992.59
2018-07-06T09:43:00.737Z,992.56
2018-07-06T09:44:00.755Z,992.57
2018-07-06T09:45:00.899Z,992.57
2018-07-06T09:46:01.049Z,992.59
2018-07-06T09:47:01.186Z,992.59
2018-07-06T09:48:01.336Z,992.61
2018-07-06T09:49:01.482Z,992.61
2018-07-06T09:50:01.632Z,992.63
2018-07-06T09:51:01.822Z,992.62
2018-07-06T09:52:01.914Z,992.63
2018-07-06T09:53:02.057Z,992.64
2018-07-06T09:54:02.196Z,992.61
2018-07-06T09:55:02.342Z,992.61
2018-07-06T09:56:02.486Z,992.64
2018-07-06T09:57:02.629Z,992.57
2018-07-06T09:58:02.825Z,992.58
2018-07-06T09:59:02.914Z,992.59
2018-07-06T10:00:03.058Z,992.57
2018-07-06T10:01:03.208Z,992.57
2018-07-06T10:02:03.355Z,992.59
2018-07-06T10:03:03.503Z,992.61
2018-07-06T10:04:03.654Z,992.56
2018-07-06T10:05:03.791Z,992.64
2018-07-06T10:06:03.938Z,992.68
2018-07-06T10:07:04.129Z,992.66
2018-07-06T10:08:04.276Z,992.67
2018-07-06T10:09:04.426Z,992.68
2018-07-06T10:10:04.604Z,992.67
2018-07-06T10:11:04.753Z,992.70
2018-07-06T10:12:04.894Z,992.65
2018-07-06T10:13:05.014Z,992.71
2018-07-06T10:14:05.185Z,992.75
2018-07-06T10:15:05.344Z,992.76
2018-07-06T10:16:05.542Z,992.71
2018-07-06T10:17:05.792Z,992.70
2018-07-06T10:18:05.793Z,992.74
2018-07-06T10:19:05.933Z,992.76
2018-07-06T10:20:06.101Z,992.77
2018-07-06T10:21:06.249Z,992.79
2018-07-06T10:22:06.398Z,992.81
2018-07-06T10:23:06.537Z,992.80
2018-07-06T10:24:06.691Z,992.82
2018-07-06T10:25:06.844Z,992.78
2018-07-06T10:26:06.993Z,992.83
2018-07-06T10:27:07.135Z,992.75
2018-07-06T10:28:07.308Z,992.81
2018-07-06T10:29:07.439Z,992.81
2018-07-06T10:30:07.581Z,992.82
2018-07-06T10:31:07.723Z,992.80
2018-07-06T10:32:07.867Z,992.85
2018-07-06T10:33:08.063Z,992.85
2018-07-06T10:34:08.169Z,992.82
2018-07-06T10:35:08.305Z,992.88
2018-07-06T10:36:08.452Z,992.91
2018-07-06T10:37:08.603Z,992.91
2018-07-06T10:38:08.745Z,992.90
2018-07-06T10:39:08.889Z,992.92
2018-07-06T10:40:09.089Z,992.91
2018-07-06T10:41:09.179Z,992.88
2018-07-06T10:42:09.319Z,992.88
2018-07-06T10:43:09.458Z,992.89
2018-07-06T10:44:09.595Z,992.87
2018-07-06T10:45:09.736Z,992.86
2018-07-06T10:46:09.878Z,992.92
2018-07-06T10:47:10.022Z,992.87
2018-07-06T10:48:10.183Z,992.94
2018-07-06T10:49:10.328Z,992.91
2018-07-06T10:50:10.491Z,992.91
2018-07-06T10:51:10.614Z,992.91
2018-07-06T10:52:10.784Z,992.91
2018-07-06T10:53:10.912Z,992.99
2018-07-06T10:54:11.045Z,993.01
2018-07-06T10:55:11.233Z,992.97
2018-07-06T10:56:11.365Z,993.02
2018-07-06T10:57:11.517Z,993.01
2018-07-06T10:58:11.662Z,993.04
2018-07-06T10:59:11.842Z,993.01
2018-07-06T11:00:11.985Z,992.96
2018-07-06T11:01:12.124Z,993.02
2018-07-06T11:02:12.291Z,993.09
2018-07-06T11:03:12.430Z,993.05
2018-07-06T11:04:12.573Z,993.08
2018-07-06T11:05:12.716Z,993.06
2018-07-06T11:06:12.881Z,993.14
2018-07-06T11:07:13.034Z,993.09
2018-07-06T11:08:13.170Z,993.10
2018-07-06T11:09:13.317Z,993.07
2018-07-06T11:10:13.483Z,993.08
2018-07-06T11:11:13.699Z,993.10
2018-07-06T11:12:13.814Z,993.14
2018-07-06T11:13:13.898Z,993.09
2018-07-06T11:14:14.063Z,993.11
2018-07-06T11:15:14.201Z,993.11
2018-07-06T11:16:14.343Z,993.09
2018-07-06T11:17:14.511Z,993.03
2018-07-06T11:18:14.656Z,993.04
2018-07-06T11:19:18.920Z,993.08
2018-07-06T11:20:14.973Z,993.05
2018-07-06T11:21:15.119Z,993.10
2018-07-06T11:22:15.265Z,993.11
2018-07-06T11:23:15.422Z,993.08
2018-07-06T11:24:15.552Z,993.14
2018-07-06T11:25:15.740Z,993.09
2018-07-06T11:26:15.858Z,993.10
2018-07-06T11:27:16.013Z,993.11
2018-07-06T11:28:16.162Z,993.12
2018-07-06T11:29:16.304Z,993.11
2018-07-06T11:30:16.453Z,993.10
2018-07-06T11:31:16.591Z,993.07
2018-07-06T11:32:16.736Z,992.99
2018-07-06T11:33:16.877Z,993.08
2018-07-06T11:34:17.023Z,993.04
2018-07-06T11:35:17.186Z,993.08
2018-07-06T11:36:17.331Z,993.04
2018-07-06T11:37:17.474Z,993.10
2018-07-06T11:38:17.722Z,993.09
2018-07-06T11:39:17.821Z,993.07
2018-07-06T11:40:17.955Z,993.07
2018-07-06T11:41:18.111Z,993.04
2018-07-06T11:42:18.243Z,993.07
2018-07-06T11:43:18.413Z,993.16
2018-07-06T11:44:18.549Z,993.15
2018-07-06T11:45:18.750Z,993.15
2018-07-06T11:46:18.860Z,993.13
2018-07-06T11:47:19.004Z,993.12
2018-07-06T11:48:19.160Z,993.13
2018-07-06T11:49:19.353Z,993.15
2018-07-06T11:50:19.491Z,993.14
2018-07-06T11:51:19.591Z,993.13
2018-07-06T11:52:19.740Z,993.14
2018-07-06T11:53:19.910Z,993.18
2018-07-06T11:54:20.052Z,993.20
2018-07-06T11:55:20.213Z,993.20
2018-07-06T11:56:20.339Z,993.23
2018-07-06T11:57:20.493Z,993.16
2018-07-06T11:58:20.639Z,993.08
2018-07-06T11:59:20.793Z,993.16
2018-07-06T12:00:20.932Z,993.15
2018-07-06T12:01:21.082Z,993.11
2018-07-06T12:02:21.246Z,993.15
2018-07-06T12:03:21.390Z,993.12
2018-07-06T12:04:21.728Z,993.05
2018-07-06T12:05:21.679Z,993.04
2018-07-06T12:06:21.856Z,993.03
2018-07-06T12:07:22.006Z,993.01
2018-07-06T12:08:22.204Z,993.06
2018-07-06T12:09:22.319Z,993.10
2018-07-06T12:10:22.463Z,993.04
2018-07-06T12:11:22.612Z,993.08
2018-07-06T12:12:22.773Z,993.08
2018-07-06T12:13:22.916Z,993.05
2018-07-06T12:14:23.072Z,993.07
2018-07-06T12:15:23.248Z,993.05
2018-07-06T12:16:23.479Z,993.03
2018-07-06T12:17:23.966Z,993.10
2018-07-06T12:18:23.709Z,993.02
2018-07-06T12:19:23.860Z,993.10
2018-07-06T12:20:23.996Z,993.09
2018-07-06T12:21:24.188Z,993.10
2018-07-06T12:22:24.286Z,993.05
2018-07-06T12:23:24.429Z,993.07
2018-07-06T12:24:24.569Z,993.00
2018-07-06T12:25:24.715Z,993.00
2018-07-06T12:26:24.864Z,993.02
2018-07-06T12:27:25.003Z,993.04
2018-07-06T12:28:25.148Z,993.07
2018-07-06T12:29:25.299Z,993.07
2018-07-06T12:30:25.435Z,993.08
2018-07-06T12:31:25.580Z,993.03